Terminal Aerodrome Forecast
Issued by NWS

Home | Current Version | Previous Version | Graphics & Text | Print | Product List | Glossary On
Versions: 1 2 3 4 5 6 7 8 9 10 11 12 13 14 15
000
FTUS43 KICT 231954 AAA
TAFSLN
TAF AMD
KSLN 231954Z 2320/2418 34026G35KT P6SM -RADZ SCT025 BKN035
      TEMPO 2320/2322 SCT015 OVC025
     FM240000 33017G26KT P6SM SCT060 BKN100
     FM240500 30014KT P6SM BKN040=

USA.gov is the U.S. government's official web portal to all federal, state and local government web resources and services.